Terminal Aerodrome Forecast
Issued by NWS Mt. Holly, NJ

Home | Current Version | Previous Version | Text Only | Print | Product List | Glossary On
Versions: 1 2 3 4 5 6 7 8 9 10 11 12 13 14 15 16 17 18 19 20 21 22 23 24 25 26 27 28 29 30 31 32 33 34 35 36 37 38 39
000
FTUS41 KPHI 010743 AAA
TAFABE
TAF AMD
KABE 010743Z 0108/0206 12006KT P6SM -RA OVC035
     FM011100 12008KT 5SM -RA BR SCT009 OVC025
     FM011500 11008KT 2SM RA BR OVC009
     FM011900 12006KT 1SM RA BR OVC004
     FM020000 08008KT 2SM -DZ BR OVC006=

USA.gov is the U.S. government's official web portal to all federal, state and local government web resources and services.